Candler, NC (28715)

6:20 PM EST on March 03, 2015 (GMT -0500)
North Slope of White Rock Mountain | Change Station
CLOSE
Current Station
Personal Weather Station
Location: Candler, NC
Elevation: 2520 ft
Nearby Weather Stations

Elev 2520 ft 35.49 °N, 82.76 °W | Updated 8 minutes ago

Overcast
Overcast
51.3 °F
Feels Like 51.3 °F
N
1.0
Wind Variable Wind from NNE
Gusts 2.0 mph

Today
High -- | Low -- °F
--% Chance of Precip.
Yesterday
High -- | Low -- °F
Precip. -- in
6:58 AM 6:27 PM
Waxing Gibbous, 97% visible
Pressure 30.09 in
Visibility 10.0 miles
Clouds Overcast 1000 ft
Dew Point 49 °F
Humidity 90%
Rainfall 0.02 in
Snow Depth Not available.
UV 0.0 out of 12
Pollen 2.40 out of 12
Air Quality Not available.
Flu Activity Not available.
METAR KAVL 032254Z 15008KT 10SM -RA OVC010 10/07 A3009 RMK AO2 RAB42 SLP187 P0000 T01000072

More Conditions Fewer Conditions

Pressure 30.09 in
Visibility 10.0 miles
Clouds Overcast 1000 ft
Dew Point 49 °F
Humidity 90%
Rainfall 0.02 in
Snow Depth Not available.
UV 0.0 out of 12
Pollen 2.40 out of 12
Air Quality Not available.
Flu Activity Not available.
METAR KAVL 032254Z 15008KT 10SM -RA OVC010 10/07 A3009 RMK AO2 RAB42 SLP187 P0000 T01000072

More Conditions Fewer Conditions

10-Day Weather Forecast

Almanac

Astronomy

Mar. 03, 2015 Rise Set
Actual Time
Civil Twilight
Nautical Twilight
Astronomical Twilight
Moon
Length of Visible Light
Length of Day
Tomorrow will be .
, % of the Moon is Illuminated

Today's Extremes

State Highs State Lows

Community

WunderPhotos

Upload Photos

1,802,304 photos uploaded!

WunderBlogs® & News

Nearby

Air Quality

  Air Quality AQ Index Pollutant
Not available.

Snow Depth

Station Depth Elevation

Earthquake Activity

City Distance Mag. Time & Date
Minimum magnitude displayed is 2.5.

Coastal Water Temperatures

Place Temperature

Nearby Weather Stations